sensor_id;sensor_type;location;lat;lon;timestamp;pressure;altitude;pressure_sealevel;temperature;humidity
60479;BME280;46321;48.398;11.754;2023-07-30T00:01:06;96220.44;;;18.26;90.30
60479;BME280;46321;48.398;11.754;2023-07-30T00:03:31;96221.50;;;18.25;90.64
60479;BME280;46321;48.398;11.754;2023-07-30T00:05:56;96221.25;;;18.27;90.10
60479;BME280;46321;48.398;11.754;2023-07-30T00:08:21;96220.91;;;18.23;89.93
60479;BME280;46321;48.398;11.754;2023-07-30T00:10:47;96223.59;;;18.23;90.11
60479;BME280;46321;48.398;11.754;2023-07-30T00:13:12;96221.38;;;18.20;90.41
60479;BME280;46321;48.398;11.754;2023-07-30T00:15:37;96222.19;;;18.21;90.58
60479;BME280;46321;48.398;11.754;2023-07-30T00:18:02;96217.66;;;18.21;90.23
60479;BME280;46321;48.398;11.754;2023-07-30T00:20:27;96216.66;;;18.15;90.15
60479;BME280;46321;48.398;11.754;2023-07-30T00:22:53;96213.75;;;18.17;89.92
60479;BME280;46321;48.398;11.754;2023-07-30T00:25:18;96224.38;;;18.24;88.88
60479;BME280;46321;48.398;11.754;2023-07-30T00:27:43;96226.84;;;18.25;88.30
60479;BME280;46321;48.398;11.754;2023-07-30T00:30:08;96227.31;;;18.22;88.25
60479;BME280;46321;48.398;11.754;2023-07-30T00:32:34;96233.00;;;18.26;87.66
60479;BME280;46321;48.398;11.754;2023-07-30T00:34:59;96233.47;;;18.23;87.54
60479;BME280;46321;48.398;11.754;2023-07-30T00:37:24;96223.47;;;18.18;87.43
60479;BME280;46321;48.398;11.754;2023-07-30T00:39:49;96230.88;;;18.16;87.86
60479;BME280;46321;48.398;11.754;2023-07-30T00:42:14;96234.84;;;18.13;88.10
60479;BME280;46321;48.398;11.754;2023-07-30T00:44:39;96241.69;;;18.09;88.11
60479;BME280;46321;48.398;11.754;2023-07-30T00:47:05;96241.34;;;18.05;88.68
60479;BME280;46321;48.398;11.754;2023-07-30T00:49:30;96244.03;;;18.05;88.15
60479;BME280;46321;48.398;11.754;2023-07-30T00:51:55;96244.03;;;18.05;87.85
60479;BME280;46321;48.398;11.754;2023-07-30T00:54:21;96242.38;;;18.04;87.96
60479;BME280;46321;48.398;11.754;2023-07-30T00:56:49;96251.69;;;18.02;87.76
60479;BME280;46321;48.398;11.754;2023-07-30T00:59:15;96245.88;;;18.05;87.18
60479;BME280;46321;48.398;11.754;2023-07-30T01:01:40;96252.28;;;18.04;87.14
60479;BME280;46321;48.398;11.754;2023-07-30T01:04:06;96250.41;;;18.04;87.29
60479;BME280;46321;48.398;11.754;2023-07-30T01:06:32;96243.88;;;18.00;87.30
60479;BME280;46321;48.398;11.754;2023-07-30T01:08:57;96243.88;;;18.00;88.03
60479;BME280;46321;48.398;11.754;2023-07-30T01:11:23;96247.84;;;17.97;88.35
60479;BME280;46321;48.398;11.754;2023-07-30T01:13:48;96247.50;;;17.94;87.96
60479;BME280;46321;48.398;11.754;2023-07-30T01:16:13;96251.91;;;18.00;87.85
60479;BME280;46321;48.398;11.754;2023-07-30T01:18:38;96255.88;;;17.97;87.95
60479;BME280;46321;48.398;11.754;2023-07-30T01:21:04;96242.94;;;17.94;88.04
60479;BME280;46321;48.398;11.754;2023-07-30T01:23:29;96242.47;;;17.97;87.68
60479;BME280;46321;48.398;11.754;2023-07-30T01:28:49;96249.56;;;17.92;87.60
60479;BME280;46321;48.398;11.754;2023-07-30T01:31:16;96252.13;;;17.87;87.88
60479;BME280;46321;48.398;11.754;2023-07-30T01:33:43;96253.97;;;17.86;87.91
60479;BME280;46321;48.398;11.754;2023-07-30T01:36:11;96245.94;;;17.86;88.16
60479;BME280;46321;48.398;11.754;2023-07-30T01:38:37;96242.44;;;17.85;88.41
60479;BME280;46321;48.398;11.754;2023-07-30T01:41:03;96242.09;;;17.82;88.74
60479;BME280;46321;48.398;11.754;2023-07-30T01:43:28;96240.91;;;17.78;88.92
60479;BME280;46321;48.398;11.754;2023-07-30T01:45:53;96242.75;;;17.77;88.86
60479;BME280;46321;48.398;11.754;2023-07-30T01:48:19;96249.78;;;17.78;88.84
60479;BME280;46321;48.398;11.754;2023-07-30T01:50:44;96234.97;;;17.76;89.15
60479;BME280;46321;48.398;11.754;2023-07-30T01:53:12;96246.34;;;17.71;89.08
60479;BME280;46321;48.398;11.754;2023-07-30T01:55:37;96249.03;;;17.71;89.16
60479;BME280;46321;48.398;11.754;2023-07-30T01:58:04;96247.19;;;17.71;89.11
60479;BME280;46321;48.398;11.754;2023-07-30T02:00:29;96253.56;;;17.70;89.08
60479;BME280;46321;48.398;11.754;2023-07-30T02:02:54;96250.69;;;17.72;89.28
60479;BME280;46321;48.398;11.754;2023-07-30T02:05:19;96258.91;;;17.70;90.31
60479;BME280;46321;48.398;11.754;2023-07-30T02:07:45;96258.31;;;17.68;90.91
60479;BME280;46321;48.398;11.754;2023-07-30T02:10:10;96251.13;;;17.69;91.18
60479;BME280;46321;48.398;11.754;2023-07-30T02:12:35;96242.66;;;17.72;91.04
60479;BME280;46321;48.398;11.754;2023-07-30T02:15:00;96247.28;;;17.77;90.89
60479;BME280;46321;48.398;11.754;2023-07-30T02:17:25;96245.44;;;17.77;89.97
60479;BME280;46321;48.398;11.754;2023-07-30T02:19:50;96253.72;;;17.76;89.68
60479;BME280;46321;48.398;11.754;2023-07-30T02:22:16;96253.47;;;17.77;89.69
60479;BME280;46321;48.398;11.754;2023-07-30T02:24:41;96261.59;;;17.70;89.31
60479;BME280;46321;48.398;11.754;2023-07-30T02:27:06;96259.06;;;17.76;89.65
60479;BME280;46321;48.398;11.754;2023-07-30T02:29:31;96263.81;;;17.73;90.16
60479;BME280;46321;48.398;11.754;2023-07-30T02:31:56;96269.28;;;17.67;91.32
60479;BME280;46321;48.398;11.754;2023-07-30T02:34:22;96276.38;;;17.73;90.98
60479;BME280;46321;48.398;11.754;2023-07-30T02:36:47;96286.34;;;17.66;92.04
60479;BME280;46321;48.398;11.754;2023-07-30T02:39:13;96284.41;;;17.73;91.33
60479;BME280;46321;48.398;11.754;2023-07-30T02:41:38;96280.13;;;17.72;91.29
60479;BME280;46321;48.398;11.754;2023-07-30T02:44:03;96277.88;;;17.69;91.52
60479;BME280;46321;48.398;11.754;2023-07-30T02:46:28;96266.94;;;17.70;91.06
60479;BME280;46321;48.398;11.754;2023-07-30T02:48:53;96267.31;;;17.74;90.67
60479;BME280;46321;48.398;11.754;2023-07-30T02:51:18;96260.25;;;17.80;90.11
60479;BME280;46321;48.398;11.754;2023-07-30T02:53:44;96255.13;;;17.78;89.98
60479;BME280;46321;48.398;11.754;2023-07-30T02:56:09;96261.75;;;17.76;89.89
60479;BME280;46321;48.398;11.754;2023-07-30T02:58:34;96265.69;;;17.73;89.75
60479;BME280;46321;48.398;11.754;2023-07-30T03:01:09;96258.31;;;17.68;89.37
60479;BME280;46321;48.398;11.754;2023-07-30T03:03:34;96262.41;;;17.71;89.59
60479;BME280;46321;48.398;11.754;2023-07-30T03:05:59;96272.97;;;17.66;89.77
60479;BME280;46321;48.398;11.754;2023-07-30T03:08:24;96276.31;;;17.61;89.92
60479;BME280;46321;48.398;11.754;2023-07-30T03:10:50;96273.06;;;17.59;90.20
60479;BME280;46321;48.398;11.754;2023-07-30T03:13:15;96271.69;;;17.56;90.66
60479;BME280;46321;48.398;11.754;2023-07-30T03:15:40;96283.25;;;17.50;90.81
60479;BME280;46321;48.398;11.754;2023-07-30T03:18:05;96282.91;;;17.46;91.08
60479;BME280;46321;48.398;11.754;2023-07-30T03:20:30;96275.22;;;17.50;91.08
60479;BME280;46321;48.398;11.754;2023-07-30T03:22:55;96279.78;;;17.49;90.99
60479;BME280;46321;48.398;11.754;2023-07-30T03:25:20;96281.75;;;17.54;90.93
60479;BME280;46321;48.398;11.754;2023-07-30T03:27:46;96278.66;;;17.57;90.39
60479;BME280;46321;48.398;11.754;2023-07-30T03:30:11;96290.59;;;17.55;90.07
60479;BME280;46321;48.398;11.754;2023-07-30T03:32:36;96286.16;;;17.48;90.14
60479;BME280;46321;48.398;11.754;2023-07-30T03:35:01;96282.53;;;17.43;90.00
60479;BME280;46321;48.398;11.754;2023-07-30T03:37:26;96271.91;;;17.36;90.76
60479;BME280;46321;48.398;11.754;2023-07-30T03:39:53;96265.34;;;17.32;90.69
60479;BME280;46321;48.398;11.754;2023-07-30T03:42:18;96271.41;;;17.27;90.91
60479;BME280;46321;48.398;11.754;2023-07-30T03:44:43;96280.16;;;17.15;91.74
60479;BME280;46321;48.398;11.754;2023-07-30T03:47:08;96272.94;;;17.16;91.46
60479;BME280;46321;48.398;11.754;2023-07-30T03:49:33;96275.03;;;17.14;91.34
60479;BME280;46321;48.398;11.754;2023-07-30T03:51:59;96274.63;;;17.10;91.51
60479;BME280;46321;48.398;11.754;2023-07-30T03:54:24;96268.09;;;17.06;91.26
60479;BME280;46321;48.398;11.754;2023-07-30T03:56:49;96264.16;;;17.09;91.27
60479;BME280;46321;48.398;11.754;2023-07-30T03:59:14;96263.13;;;17.10;91.13
60479;BME280;46321;48.398;11.754;2023-07-30T04:01:40;96261.69;;;17.07;90.80
60479;BME280;46321;48.398;11.754;2023-07-30T04:04:05;96266.03;;;17.08;90.86
60479;BME280;46321;48.398;11.754;2023-07-30T04:06:30;96274.69;;;17.03;91.01
60479;BME280;46321;48.398;11.754;2023-07-30T04:08:55;96268.41;;;16.98;91.50
60479;BME280;46321;48.398;11.754;2023-07-30T04:11:20;96275.13;;;17.00;91.24
60479;BME280;46321;48.398;11.754;2023-07-30T04:13:45;96283.84;;;16.96;91.49
60479;BME280;46321;48.398;11.754;2023-07-30T04:16:11;96281.78;;;16.98;91.30
60479;BME280;46321;48.398;11.754;2023-07-30T04:18:36;96288.81;;;16.92;91.30
60479;BME280;46321;48.398;11.754;2023-07-30T04:21:01;96297.66;;;16.92;91.34
60479;BME280;46321;48.398;11.754;2023-07-30T04:23:26;96302.63;;;16.89;91.66
60479;BME280;46321;48.398;11.754;2023-07-30T04:25:51;96307.16;;;16.88;91.87
60479;BME280;46321;48.398;11.754;2023-07-30T04:28:17;96304.25;;;16.90;91.54
60479;BME280;46321;48.398;11.754;2023-07-30T04:30:42;96305.66;;;16.92;91.60
60479;BME280;46321;48.398;11.754;2023-07-30T04:33:07;96306.69;;;16.91;91.54
60479;BME280;46321;48.398;11.754;2023-07-30T04:35:32;96304.84;;;16.92;91.78
60479;BME280;46321;48.398;11.754;2023-07-30T04:37:57;96301.97;;;16.93;91.51
60479;BME280;46321;48.398;11.754;2023-07-30T04:40:23;96303.00;;;16.92;91.99
60479;BME280;46321;48.398;11.754;2023-07-30T04:42:48;96309.34;;;16.91;92.25
60479;BME280;46321;48.398;11.754;2023-07-30T04:45:13;96303.16;;;16.98;91.95
60479;BME280;46321;48.398;11.754;2023-07-30T04:47:38;96301.06;;;17.00;92.35
60479;BME280;46321;48.398;11.754;2023-07-30T04:50:03;96310.44;;;17.09;91.88
60479;BME280;46321;48.398;11.754;2023-07-30T04:52:29;96310.81;;;17.13;92.21
60479;BME280;46321;48.398;11.754;2023-07-30T04:54:54;96317.16;;;17.19;92.00
60479;BME280;46321;48.398;11.754;2023-07-30T04:57:19;96328.59;;;17.26;92.16
60479;BME280;46321;48.398;11.754;2023-07-30T04:59:44;96328.69;;;17.38;91.61
60479;BME280;46321;48.398;11.754;2023-07-30T05:02:09;96333.06;;;17.51;91.25
60479;BME280;46321;48.398;11.754;2023-07-30T05:04:34;96330.66;;;17.61;91.02
60479;BME280;46321;48.398;11.754;2023-07-30T05:07:00;96324.22;;;17.69;91.28
60479;BME280;46321;48.398;11.754;2023-07-30T05:09:25;96326.91;;;17.81;90.88
60479;BME280;46321;48.398;11.754;2023-07-30T05:11:50;96332.56;;;17.92;90.89
60479;BME280;46321;48.398;11.754;2023-07-30T05:14:15;96335.50;;;18.02;90.55
60479;BME280;46321;48.398;11.754;2023-07-30T05:16:40;96341.03;;;18.07;90.32
60479;BME280;46321;48.398;11.754;2023-07-30T05:19:06;96342.19;;;18.12;90.16
60479;BME280;46321;48.398;11.754;2023-07-30T05:21:31;96333.84;;;18.20;90.24
60479;BME280;46321;48.398;11.754;2023-07-30T05:23:56;96343.06;;;18.24;89.67
60479;BME280;46321;48.398;11.754;2023-07-30T05:26:21;96343.31;;;18.23;90.03
60479;BME280;46321;48.398;11.754;2023-07-30T05:28:46;96342.31;;;18.17;90.32
60479;BME280;46321;48.398;11.754;2023-07-30T05:31:11;96346.72;;;18.30;90.16
60479;BME280;46321;48.398;11.754;2023-07-30T05:33:37;96339.75;;;18.41;90.09
60479;BME280;46321;48.398;11.754;2023-07-30T05:36:02;96344.75;;;18.49;89.39
60479;BME280;46321;48.398;11.754;2023-07-30T05:38:27;96337.56;;;18.62;88.87
60479;BME280;46321;48.398;11.754;2023-07-30T05:40:52;96348.41;;;18.67;88.36
60479;BME280;46321;48.398;11.754;2023-07-30T05:43:17;96353.41;;;18.75;87.91
60479;BME280;46321;48.398;11.754;2023-07-30T05:45:43;96352.50;;;18.82;88.25
60479;BME280;46321;48.398;11.754;2023-07-30T05:48:08;96353.34;;;18.94;87.34
60479;BME280;46321;48.398;11.754;2023-07-30T05:50:34;96357.78;;;19.13;88.72
60479;BME280;46321;48.398;11.754;2023-07-30T05:52:59;96361.16;;;19.20;86.93
60479;BME280;46321;48.398;11.754;2023-07-30T05:55:24;96364.44;;;19.34;86.33
60479;BME280;46321;48.398;11.754;2023-07-30T05:57:49;96362.91;;;19.38;85.08
60479;BME280;46321;48.398;11.754;2023-07-30T06:00:14;96366.84;;;19.48;84.48
60479;BME280;46321;48.398;11.754;2023-07-30T06:02:39;96358.22;;;19.45;83.53
60479;BME280;46321;48.398;11.754;2023-07-30T06:05:05;96356.50;;;19.39;82.65
60479;BME280;46321;48.398;11.754;2023-07-30T06:07:30;96364.53;;;19.39;81.70
60479;BME280;46321;48.398;11.754;2023-07-30T06:09:55;96349.38;;;19.33;83.39
60479;BME280;46321;48.398;11.754;2023-07-30T06:12:20;96360.22;;;19.38;82.63
60479;BME280;46321;48.398;11.754;2023-07-30T06:14:45;96359.19;;;19.39;81.98
60479;BME280;46321;48.398;11.754;2023-07-30T06:17:11;96361.28;;;19.37;81.80
60479;BME280;46321;48.398;11.754;2023-07-30T06:19:36;96358.22;;;19.45;82.28
60479;BME280;46321;48.398;11.754;2023-07-30T06:22:01;96359.16;;;19.51;82.32
60479;BME280;46321;48.398;11.754;2023-07-30T06:24:26;96353.75;;;19.63;82.66
60479;BME280;46321;48.398;11.754;2023-07-30T06:26:51;96355.09;;;19.90;83.22
60479;BME280;46321;48.398;11.754;2023-07-30T06:29:16;96349.53;;;20.09;82.22
60479;BME280;46321;48.398;11.754;2023-07-30T06:31:42;96364.69;;;20.27;81.54
60479;BME280;46321;48.398;11.754;2023-07-30T06:34:07;96358.81;;;20.30;80.18
60479;BME280;46321;48.398;11.754;2023-07-30T06:36:32;96364.75;;;20.32;78.94
60479;BME280;46321;48.398;11.754;2023-07-30T06:38:57;96359.38;;;20.32;77.94
60479;BME280;46321;48.398;11.754;2023-07-30T06:41:22;96354.34;;;20.36;78.10
60479;BME280;46321;48.398;11.754;2023-07-30T06:43:48;96359.22;;;20.39;76.84
60479;BME280;46321;48.398;11.754;2023-07-30T06:46:13;96356.06;;;20.42;77.79
60479;BME280;46321;48.398;11.754;2023-07-30T06:48:38;96360.31;;;20.55;76.57
60479;BME280;46321;48.398;11.754;2023-07-30T06:51:07;96349.81;;;20.71;76.65
60479;BME280;46321;48.398;11.754;2023-07-30T06:53:32;96356.66;;;20.79;76.24
60479;BME280;46321;48.398;11.754;2023-07-30T06:55:57;96358.03;;;20.81;75.79
60479;BME280;46321;48.398;11.754;2023-07-30T06:58:22;96364.47;;;20.98;75.75
60479;BME280;46321;48.398;11.754;2023-07-30T07:00:48;96366.59;;;21.13;74.35
60479;BME280;46321;48.398;11.754;2023-07-30T07:03:13;96371.75;;;21.14;74.04
60479;BME280;46321;48.398;11.754;2023-07-30T07:05:38;96377.59;;;21.28;73.88
60479;BME280;46321;48.398;11.754;2023-07-30T07:08:03;96364.69;;;21.31;72.59
60479;BME280;46321;48.398;11.754;2023-07-30T07:10:28;96373.16;;;21.39;73.57
60479;BME280;46321;48.398;11.754;2023-07-30T07:12:54;96380.28;;;21.68;72.96
60479;BME280;46321;48.398;11.754;2023-07-30T07:15:19;96384.72;;;21.80;72.52
60479;BME280;46321;48.398;11.754;2023-07-30T07:17:44;96384.56;;;21.87;70.83
60479;BME280;46321;48.398;11.754;2023-07-30T07:20:09;96381.06;;;21.86;69.19
60479;BME280;46321;48.398;11.754;2023-07-30T07:22:36;96377.72;;;22.01;69.37
60479;BME280;46321;48.398;11.754;2023-07-30T07:25:01;96382.84;;;22.03;68.09
60479;BME280;46321;48.398;11.754;2023-07-30T07:27:26;96381.97;;;22.19;69.71
60479;BME280;46321;48.398;11.754;2023-07-30T07:29:52;96375.78;;;22.47;68.54
60479;BME280;46321;48.398;11.754;2023-07-30T07:32:17;96378.09;;;22.65;66.75
60479;BME280;46321;48.398;11.754;2023-07-30T07:34:49;96375.81;;;22.80;67.31
60479;BME280;46321;48.398;11.754;2023-07-30T07:37:14;96374.56;;;22.93;65.19
60479;BME280;46321;48.398;11.754;2023-07-30T07:39:44;96380.34;;;23.07;65.89
60479;BME280;46321;48.398;11.754;2023-07-30T07:42:09;96377.41;;;23.14;65.05
60479;BME280;46321;48.398;11.754;2023-07-30T07:44:34;96381.16;;;23.13;63.73
60479;BME280;46321;48.398;11.754;2023-07-30T07:47:00;96381.38;;;23.01;63.91
60479;BME280;46321;48.398;11.754;2023-07-30T07:49:25;96379.56;;;23.12;63.94
60479;BME280;46321;48.398;11.754;2023-07-30T07:51:50;96370.38;;;23.13;62.87
60479;BME280;46321;48.398;11.754;2023-07-30T07:54:15;96374.22;;;23.22;62.75
60479;BME280;46321;48.398;11.754;2023-07-30T07:56:41;96374.50;;;23.20;62.98
60479;BME280;46321;48.398;11.754;2023-07-30T07:59:06;96381.25;;;23.23;63.07
60479;BME280;46321;48.398;11.754;2023-07-30T08:01:31;96384.84;;;23.34;62.79
60479;BME280;46321;48.398;11.754;2023-07-30T08:03:56;96372.91;;;23.30;62.79
60479;BME280;46321;48.398;11.754;2023-07-30T08:06:21;96366.91;;;23.17;63.16
60479;BME280;46321;48.398;11.754;2023-07-30T08:08:47;96375.88;;;23.23;63.19
60479;BME280;46321;48.398;11.754;2023-07-30T08:11:12;96381.16;;;23.13;62.91
60479;BME280;46321;48.398;11.754;2023-07-30T08:13:37;96385.94;;;23.00;62.92
60479;BME280;46321;48.398;11.754;2023-07-30T08:16:02;96383.00;;;23.02;62.02
60479;BME280;46321;48.398;11.754;2023-07-30T08:18:28;96385.78;;;23.17;62.61
60479;BME280;46321;48.398;11.754;2023-07-30T08:20:53;96380.91;;;23.14;62.46
60479;BME280;46321;48.398;11.754;2023-07-30T08:23:18;96383.09;;;23.17;61.93
60479;BME280;46321;48.398;11.754;2023-07-30T08:25:43;96387.16;;;23.20;62.37
60479;BME280;46321;48.398;11.754;2023-07-30T08:28:09;96380.66;;;23.16;61.30
60479;BME280;46321;48.398;11.754;2023-07-30T08:30:34;96373.81;;;23.46;62.40
60479;BME280;46321;48.398;11.754;2023-07-30T08:32:59;96376.50;;;23.46;62.75
60479;BME280;46321;48.398;11.754;2023-07-30T08:35:24;96373.09;;;23.61;63.06
60479;BME280;46321;48.398;11.754;2023-07-30T08:37:51;96374.06;;;23.98;63.51
60479;BME280;46321;48.398;11.754;2023-07-30T08:40:17;96372.50;;;24.18;61.42
60479;BME280;46321;48.398;11.754;2023-07-30T08:42:42;96368.78;;;24.40;58.91
60479;BME280;46321;48.398;11.754;2023-07-30T08:45:07;96357.47;;;24.59;57.73
60479;BME280;46321;48.398;11.754;2023-07-30T08:47:33;96355.31;;;24.66;55.72
60479;BME280;46321;48.398;11.754;2023-07-30T08:49:59;96351.78;;;24.76;56.11
60479;BME280;46321;48.398;11.754;2023-07-30T08:52:24;96357.72;;;25.10;54.50
60479;BME280;46321;48.398;11.754;2023-07-30T08:54:49;96349.31;;;25.11;55.29
60479;BME280;46321;48.398;11.754;2023-07-30T08:57:16;96346.03;;;25.35;56.21
60479;BME280;46321;48.398;11.754;2023-07-30T08:59:44;96354.88;;;25.67;55.49
60479;BME280;46321;48.398;11.754;2023-07-30T09:02:27;96347.41;;;26.04;55.73
60479;BME280;46321;48.398;11.754;2023-07-30T09:04:56;96345.66;;;26.29;53.68
60479;BME280;46321;48.398;11.754;2023-07-30T09:07:23;96336.19;;;26.67;52.86
60479;BME280;46321;48.398;11.754;2023-07-30T09:09:49;96330.19;;;27.00;51.75
60479;BME280;46321;48.398;11.754;2023-07-30T09:12:15;96328.63;;;26.94;50.58
60479;BME280;46321;48.398;11.754;2023-07-30T09:14:40;96336.09;;;26.37;51.15
60479;BME280;46321;48.398;11.754;2023-07-30T09:17:05;96332.13;;;26.19;48.53
60479;BME280;46321;48.398;11.754;2023-07-30T09:19:34;96336.03;;;26.02;49.53
60479;BME280;46321;48.398;11.754;2023-07-30T09:21:59;96315.03;;;25.68;49.67
60479;BME280;46321;48.398;11.754;2023-07-30T09:24:24;96326.50;;;25.38;51.16
60479;BME280;46321;48.398;11.754;2023-07-30T09:26:50;96319.47;;;25.43;50.99
60479;BME280;46321;48.398;11.754;2023-07-30T09:29:15;96323.47;;;25.71;51.02
60479;BME280;46321;48.398;11.754;2023-07-30T09:31:47;96316.03;;;25.88;51.19
60479;BME280;46321;48.398;11.754;2023-07-30T09:34:16;96317.09;;;25.97;50.19
60479;BME280;46321;48.398;11.754;2023-07-30T09:36:43;96313.19;;;25.58;50.54
60479;BME280;46321;48.398;11.754;2023-07-30T09:39:30;96317.00;;;25.52;50.54
60479;BME280;46321;48.398;11.754;2023-07-30T09:41:59;96305.00;;;25.68;51.22
60479;BME280;46321;48.398;11.754;2023-07-30T09:44:25;96312.34;;;25.73;51.05
60479;BME280;46321;48.398;11.754;2023-07-30T09:46:50;96322.59;;;26.27;50.65
60479;BME280;46321;48.398;11.754;2023-07-30T09:49:16;96316.50;;;26.51;50.31
60479;BME280;46321;48.398;11.754;2023-07-30T09:51:41;96307.19;;;26.62;49.92
60479;BME280;46321;48.398;11.754;2023-07-30T09:54:07;96309.09;;;26.92;48.48
60479;BME280;46321;48.398;11.754;2023-07-30T09:56:33;96303.38;;;26.93;48.52
60479;BME280;46321;48.398;11.754;2023-07-30T09:58:58;96301.91;;;26.77;47.67
60479;BME280;46321;48.398;11.754;2023-07-30T10:01:23;96304.09;;;26.74;47.94
60479;BME280;46321;48.398;11.754;2023-07-30T10:03:50;96302.66;;;27.12;47.37
60479;BME280;46321;48.398;11.754;2023-07-30T10:06:16;96292.47;;;27.72;46.39
60479;BME280;46321;48.398;11.754;2023-07-30T10:08:41;96305.78;;;27.25;45.53
60479;BME280;46321;48.398;11.754;2023-07-30T10:11:08;96307.78;;;26.54;44.49
60479;BME280;46321;48.398;11.754;2023-07-30T10:13:34;96303.81;;;27.06;45.16
60479;BME280;46321;48.398;11.754;2023-07-30T10:16:00;96299.66;;;27.38;43.68
60479;BME280;46321;48.398;11.754;2023-07-30T10:18:46;96300.75;;;27.86;43.42
60479;BME280;46321;48.398;11.754;2023-07-30T10:21:11;96298.31;;;28.43;43.66
60479;BME280;46321;48.398;11.754;2023-07-30T10:23:47;96310.44;;;28.31;40.74
60479;BME280;46321;48.398;11.754;2023-07-30T10:26:26;96294.34;;;28.16;41.21
60479;BME280;46321;48.398;11.754;2023-07-30T10:29:02;96306.88;;;27.73;42.86
60479;BME280;46321;48.398;11.754;2023-07-30T10:31:38;96299.28;;;28.14;41.52
60479;BME280;46321;48.398;11.754;2023-07-30T10:34:05;96295.28;;;28.25;40.95
60479;BME280;46321;48.398;11.754;2023-07-30T10:36:33;96300.56;;;28.35;40.56
60479;BME280;46321;48.398;11.754;2023-07-30T10:39:11;96299.25;;;28.52;39.69
60479;BME280;46321;48.398;11.754;2023-07-30T10:41:36;96295.88;;;28.22;40.21
60479;BME280;46321;48.398;11.754;2023-07-30T10:44:02;96308.59;;;28.07;41.15
60479;BME280;46321;48.398;11.754;2023-07-30T10:46:27;96311.63;;;27.62;41.65
60479;BME280;46321;48.398;11.754;2023-07-30T10:48:53;96307.75;;;27.68;40.78
60479;BME280;46321;48.398;11.754;2023-07-30T10:51:19;96308.31;;;27.16;40.66
60479;BME280;46321;48.398;11.754;2023-07-30T10:53:46;96296.38;;;27.41;40.79
60479;BME280;46321;48.398;11.754;2023-07-30T10:56:11;96295.66;;;27.06;41.82
60479;BME280;46321;48.398;11.754;2023-07-30T10:58:37;96292.56;;;27.18;42.31
60479;BME280;46321;48.398;11.754;2023-07-30T11:01:03;96297.13;;;27.23;42.19
60479;BME280;46321;48.398;11.754;2023-07-30T11:03:28;96302.88;;;27.65;41.77
60479;BME280;46321;48.398;11.754;2023-07-30T11:05:54;96302.19;;;27.54;41.50
60479;BME280;46321;48.398;11.754;2023-07-30T11:08:21;96297.47;;;27.40;42.82
60479;BME280;46321;48.398;11.754;2023-07-30T11:10:46;96306.28;;;27.51;41.85
60479;BME280;46321;48.398;11.754;2023-07-30T11:13:12;96314.94;;;27.34;43.41
60479;BME280;46321;48.398;11.754;2023-07-30T11:15:41;96317.78;;;26.89;43.35
60479;BME280;46321;48.398;11.754;2023-07-30T11:18:07;96335.97;;;26.58;44.29
60479;BME280;46321;48.398;11.754;2023-07-30T11:20:33;96342.28;;;26.48;44.62
60479;BME280;46321;48.398;11.754;2023-07-30T11:22:58;96352.28;;;26.07;45.30
60479;BME280;46321;48.398;11.754;2023-07-30T11:25:23;96360.69;;;26.06;45.85
60479;BME280;46321;48.398;11.754;2023-07-30T11:27:49;96361.94;;;26.24;45.11
60479;BME280;46321;48.398;11.754;2023-07-30T11:30:14;96362.94;;;25.93;44.93
60479;BME280;46321;48.398;11.754;2023-07-30T11:32:39;96365.03;;;26.07;44.27
60479;BME280;46321;48.398;11.754;2023-07-30T11:35:05;96365.72;;;26.28;45.60
60479;BME280;46321;48.398;11.754;2023-07-30T11:37:32;96373.41;;;26.11;45.85
60479;BME280;46321;48.398;11.754;2023-07-30T11:39:57;96378.84;;;26.11;45.22
60479;BME280;46321;48.398;11.754;2023-07-30T11:42:22;96379.66;;;26.11;45.03
60479;BME280;46321;48.398;11.754;2023-07-30T11:44:48;96377.91;;;25.75;44.04
60479;BME280;46321;48.398;11.754;2023-07-30T11:47:20;96375.44;;;25.79;43.73
60479;BME280;46321;48.398;11.754;2023-07-30T11:49:54;96376.28;;;25.64;43.61
60479;BME280;46321;48.398;11.754;2023-07-30T11:52:19;96386.06;;;25.54;44.15
60479;BME280;46321;48.398;11.754;2023-07-30T11:54:44;96380.09;;;25.63;44.22
60479;BME280;46321;48.398;11.754;2023-07-30T11:57:09;96382.59;;;25.27;44.45
60479;BME280;46321;48.398;11.754;2023-07-30T11:59:35;96368.81;;;25.29;44.99
60479;BME280;46321;48.398;11.754;2023-07-30T12:02:01;96368.84;;;25.13;45.60
60479;BME280;46321;48.398;11.754;2023-07-30T12:04:30;96380.22;;;25.00;45.63
60479;BME280;46321;48.398;11.754;2023-07-30T12:06:55;96378.81;;;24.92;46.07
60479;BME280;46321;48.398;11.754;2023-07-30T12:09:21;96390.75;;;24.75;47.01
60479;BME280;46321;48.398;11.754;2023-07-30T12:11:51;96377.47;;;24.95;46.85
60479;BME280;46321;48.398;11.754;2023-07-30T12:14:17;96383.41;;;24.60;46.78
60479;BME280;46321;48.398;11.754;2023-07-30T12:16:42;96375.72;;;24.10;46.87
60479;BME280;46321;48.398;11.754;2023-07-30T12:19:07;96376.09;;;24.55;47.47
60479;BME280;46321;48.398;11.754;2023-07-30T12:21:33;96386.63;;;24.46;48.52
60479;BME280;46321;48.398;11.754;2023-07-30T12:23:58;96378.56;;;24.67;48.19
60479;BME280;46321;48.398;11.754;2023-07-30T12:26:23;96376.66;;;24.68;49.15
60479;BME280;46321;48.398;11.754;2023-07-30T12:28:49;96374.22;;;24.92;48.89
60479;BME280;46321;48.398;11.754;2023-07-30T12:31:14;96377.47;;;24.63;48.81
60479;BME280;46321;48.398;11.754;2023-07-30T12:33:39;96368.00;;;24.92;49.58
60479;BME280;46321;48.398;11.754;2023-07-30T12:36:04;96381.53;;;24.92;48.61
60479;BME280;46321;48.398;11.754;2023-07-30T12:38:30;96387.78;;;24.82;48.17
60479;BME280;46321;48.398;11.754;2023-07-30T12:40:55;96387.25;;;25.01;47.71
60479;BME280;46321;48.398;11.754;2023-07-30T12:43:20;96381.00;;;24.79;48.19
60479;BME280;46321;48.398;11.754;2023-07-30T12:45:46;96392.91;;;24.68;49.29